Time;durP1;ratioP1;P1;durP2;ratioP2;P2;SDS_P1;SDS_P2;PMS_P1;PMS_P2;Temp;Humidity;BMP_temperature;BMP_pressure;BME280_temperature;BME280_humidity;BME280_pressure;Samples;Min_cycle;Max_cycle;Signal;HPM_P1;HPM_P2
2021/06/27 00:01:53;;;;;;;0.47;0.20;;;19.30;67.40;;;;;;5028581;28;20041;-83
2021/06/27 00:04:19;;;;;;;1.52;0.10;;;19.30;67.50;;;;;;5014051;28;20404;-85
2021/06/27 00:06:46;;;;;;;0.52;0.10;;;19.30;67.50;;;;;;5029620;28;20037;-84
2021/06/27 00:09:13;;;;;;;0.30;0.10;;;19.30;67.50;;;;;;5014350;28;20400;-84
2021/06/27 00:11:39;;;;;;;0.40;0.15;;;19.30;67.50;;;;;;5029226;28;20428;-85
2021/06/27 00:14:06;;;;;;;0.73;0.40;;;19.30;67.50;;;;;;5013843;28;20029;-85
2021/06/27 00:16:32;;;;;;;1.20;0.43;;;19.30;67.50;;;;;;5027396;28;20037;-85
2021/06/27 00:18:58;;;;;;;0.20;0.10;;;19.30;67.50;;;;;;5013868;28;20511;-84
2021/06/27 00:21:24;;;;;;;0.70;0.10;;;19.30;67.50;;;;;;5013708;28;20034;-85
2021/06/27 00:23:50;;;;;;;0.95;0.20;;;19.40;67.60;;;;;;5008952;28;20054;-86
2021/06/27 00:26:18;;;;;;;0.68;0.25;;;19.30;67.60;;;;;;5006846;28;20038;-84
2021/06/27 00:28:44;;;;;;;0.10;0.05;;;19.30;67.60;;;;;;5013399;28;20034;-85
2021/06/27 00:31:10;;;;;;;0.63;0.10;;;19.30;67.70;;;;;;5028172;28;20267;-84
2021/06/27 00:33:36;;;;;;;0.20;0.00;;;19.40;67.80;;;;;;5029070;28;20384;-86
2021/06/27 00:36:03;;;;;;;1.10;0.22;;;19.30;67.80;;;;;;5013656;28;20030;-84
2021/06/27 00:38:29;;;;;;;0.55;0.10;;;19.30;67.80;;;;;;5013415;28;20400;-84
2021/06/27 00:40:56;;;;;;;0.60;0.10;;;19.30;67.90;;;;;;5011928;28;20034;-86
2021/06/27 00:43:22;;;;;;;0.50;0.15;;;19.30;68.00;;;;;;5013271;28;20052;-85
2021/06/27 00:45:48;;;;;;;0.43;0.10;;;19.20;68.00;;;;;;5028082;28;20029;-84
2021/06/27 00:48:14;;;;;;;0.88;0.22;;;19.20;68.10;;;;;;5012560;28;20037;-85
2021/06/27 00:50:41;;;;;;;0.75;0.30;;;19.20;68.20;;;;;;5028457;28;20038;-85
2021/06/27 00:53:08;;;;;;;0.38;0.10;;;19.20;68.20;;;;;;5013198;28;20029;-83
2021/06/27 00:55:34;;;;;;;6.75;1.27;;;19.20;68.30;;;;;;5028704;28;20033;-85
2021/06/27 00:58:00;;;;;;;2.50;0.15;;;19.20;68.30;;;;;;5028421;28;20341;-85
2021/06/27 01:00:31;;;;;;;0.32;0.10;;;19.20;68.30;;;;;;5011557;28;20030;-84
2021/06/27 01:02:57;;;;;;;1.77;0.45;;;19.20;68.40;;;;;;5028225;28;20030;-85
2021/06/27 01:05:25;;;;;;;0.45;0.10;;;19.20;68.40;;;;;;5008296;28;20401;-85
2021/06/27 01:07:52;;;;;;;0.43;0.10;;;19.10;68.40;;;;;;5003917;28;20038;-85
2021/06/27 01:10:18;;;;;;;0.40;0.10;;;19.10;68.50;;;;;;5028150;28;20400;-85
2021/06/27 01:12:44;;;;;;;1.05;0.20;;;19.10;68.50;;;;;;5012817;28;20042;-85
2021/06/27 01:15:11;;;;;;;0.25;0.13;;;19.10;68.60;;;;;;5011728;28;20034;-85
2021/06/27 01:17:39;;;;;;;0.00;0.00;;;19.10;68.70;;;;;;5012849;28;20045;-85
2021/06/27 01:20:22;;;;;;;0.30;0.08;;;19.10;68.70;;;;;;5027903;28;20403;-84
2021/06/27 01:22:48;;;;;;;0.73;0.10;;;19.10;68.80;;;;;;5012873;28;20042;-85
2021/06/27 01:25:19;;;;;;;0.40;0.10;;;19.10;68.80;;;;;;5028075;28;20475;-86
2021/06/27 01:27:45;;;;;;;0.10;0.05;;;19.10;68.80;;;;;;5027416;28;20522;-85
2021/06/27 01:30:11;;;;;;;0.20;0.00;;;19.10;68.80;;;;;;5011104;28;20056;-86
2021/06/27 01:32:39;;;;;;;0.52;0.28;;;19.00;68.90;;;;;;5012531;28;20056;-84
2021/06/27 01:35:07;;;;;;;1.10;0.22;;;19.00;68.90;;;;;;5012486;28;20026;-84
2021/06/27 01:37:33;;;;;;;0.47;0.20;;;19.00;69.00;;;;;;5012456;28;20407;-85
2021/06/27 01:40:00;;;;;;;0.10;0.00;;;18.90;69.10;;;;;;5027609;28;20200;-85
2021/06/27 01:42:26;;;;;;;1.52;0.38;;;18.90;69.10;;;;;;5012633;28;20392;-86
2021/06/27 01:44:52;;;;;;;0.40;0.20;;;18.90;70.00;;;;;;5012315;28;20033;-85
2021/06/27 01:47:26;;;;;;;0.22;0.10;;;18.90;69.30;;;;;;5011852;28;20034;-85
2021/06/27 01:49:52;;;;;;;0.20;0.00;;;18.80;69.30;;;;;;5012186;28;20494;-84
2021/06/27 01:52:18;;;;;;;0.13;0.00;;;18.90;69.40;;;;;;5027626;28;20105;-85
2021/06/27 01:54:44;;;;;;;0.85;0.30;;;18.90;69.40;;;;;;5027455;28;20030;-85
2021/06/27 01:57:10;;;;;;;2.17;0.35;;;18.90;69.40;;;;;;5011098;28;20038;-85
2021/06/27 01:59:36;;;;;;;0.52;0.20;;;18.80;69.30;;;;;;5027116;28;20477;-85
2021/06/27 02:02:03;;;;;;;0.25;0.03;;;18.80;69.40;;;;;;5011375;28;20038;-85
2021/06/27 02:04:29;;;;;;;0.57;0.10;;;18.80;69.50;;;;;;5005933;28;20038;-83
2021/06/27 02:06:55;;;;;;;2.90;0.35;;;18.90;69.50;;;;;;5018776;28;20026;-85
2021/06/27 02:09:22;;;;;;;1.88;0.40;;;18.90;69.50;;;;;;5001353;28;20030;-84
2021/06/27 02:11:48;;;;;;;1.17;0.30;;;18.90;69.50;;;;;;5016495;28;20042;-82
2021/06/27 02:14:14;;;;;;;0.45;0.25;;;18.90;69.40;;;;;;5017810;28;20049;-85
2021/06/27 02:16:40;;;;;;;0.43;0.10;;;18.90;69.50;;;;;;4983233;28;20027;-87
2021/06/27 02:19:06;;;;;;;0.43;0.20;;;19.00;69.50;;;;;;4988812;28;20035;-84
2021/06/27 02:21:34;;;;;;;1.25;0.30;;;18.90;69.40;;;;;;4988390;28;20035;-85
2021/06/27 02:24:01;;;;;;;0.20;0.10;;;19.00;69.50;;;;;;4983861;28;20050;-84
2021/06/27 02:26:27;;;;;;;0.82;0.10;;;18.90;69.40;;;;;;4998117;28;20030;-84
2021/06/27 02:28:54;;;;;;;0.30;0.10;;;19.00;69.50;;;;;;4984114;28;20053;-85
2021/06/27 02:31:20;;;;;;;0.43;0.15;;;19.00;69.50;;;;;;4985886;28;20035;-85
2021/06/27 02:33:46;;;;;;;2.38;0.35;;;19.00;69.60;;;;;;4987815;28;20026;-85
2021/06/27 02:36:13;;;;;;;0.00;0.00;;;19.00;69.60;;;;;;4973488;28;20027;-85
2021/06/27 02:38:39;;;;;;;2.42;0.30;;;19.00;69.60;;;;;;4992249;28;20030;-85
2021/06/27 02:41:06;;;;;;;4.38;0.63;;;19.00;69.60;;;;;;5010357;28;20033;-85
2021/06/27 02:43:32;;;;;;;0.10;0.10;;;19.00;69.70;;;;;;4995942;28;20045;-84
2021/06/27 02:45:58;;;;;;;1.08;0.10;;;19.00;69.70;;;;;;5003337;28;20493;-84
2021/06/27 02:48:24;;;;;;;0.55;0.20;;;19.00;69.70;;;;;;5014823;28;20045;-85
2021/06/27 02:50:50;;;;;;;0.93;0.43;;;19.00;69.70;;;;;;5015356;28;20029;-85
2021/06/27 02:53:16;;;;;;;2.45;0.43;;;19.00;69.80;;;;;;5015496;28;20530;-84
2021/06/27 02:55:42;;;;;;;0.45;0.17;;;19.00;69.80;;;;;;5015192;28;20030;-85
2021/06/27 02:58:08;;;;;;;0.45;0.20;;;19.00;69.90;;;;;;5030847;28;20384;-85
2021/06/27 03:00:34;;;;;;;0.43;0.30;;;19.00;69.90;;;;;;5030519;28;20063;-84
2021/06/27 03:03:01;;;;;;;0.45;0.00;;;19.00;69.90;;;;;;5015392;28;20030;-86
2021/06/27 03:05:27;;;;;;;1.38;0.30;;;19.00;69.90;;;;;;5015240;28;20064;-85
2021/06/27 03:07:53;;;;;;;1.38;0.30;;;19.00;69.90;;;;;;5030433;28;20029;-84
2021/06/27 03:10:19;;;;;;;0.30;0.10;;;19.00;70.00;;;;;;5014787;28;20029;-85
2021/06/27 03:12:49;;;;;;;1.77;0.40;;;19.00;70.00;;;;;;5030487;28;20030;-85
2021/06/27 03:15:17;;;;;;;0.98;0.50;;;19.00;70.00;;;;;;5013923;28;20034;-85
2021/06/27 03:17:43;;;;;;;0.98;0.32;;;19.00;70.00;;;;;;5015081;28;20388;-85
2021/06/27 03:20:11;;;;;;;1.40;0.22;;;19.00;70.00;;;;;;5030348;28;20042;-85
2021/06/27 03:22:38;;;;;;;0.65;0.10;;;19.00;70.10;;;;;;5030395;28;20025;-85
2021/06/27 03:25:04;;;;;;;0.60;0.20;;;19.00;70.10;;;;;;4999124;28;20034;-85
2021/06/27 03:27:31;;;;;;;0.08;0.00;;;19.00;70.10;;;;;;5014350;28;20503;-85
2021/06/27 03:29:57;;;;;;;0.10;0.05;;;19.00;70.20;;;;;;5014495;28;20061;-85
2021/06/27 03:32:23;;;;;;;1.25;0.28;;;19.00;70.20;;;;;;5014377;28;20034;-83
2021/06/27 03:34:49;;;;;;;1.13;0.35;;;19.00;70.20;;;;;;5014714;28;20032;-85
2021/06/27 03:37:15;;;;;;;2.72;0.30;;;19.00;70.30;;;;;;5014504;28;20030;-82
2021/06/27 03:39:42;;;;;;;1.25;0.22;;;19.00;70.30;;;;;;5014488;28;20487;-84
2021/06/27 03:42:08;;;;;;;0.77;0.20;;;19.00;71.10;;;;;;5013896;28;20033;-84
2021/06/27 03:44:35;;;;;;;0.30;0.10;;;19.00;70.30;;;;;;5014160;28;20523;-85
2021/06/27 03:47:01;;;;;;;1.33;0.28;;;19.00;70.40;;;;;;5014309;28;20381;-85
2021/06/27 03:49:27;;;;;;;0.73;0.13;;;19.00;70.40;;;;;;5029859;28;20029;-85
2021/06/27 03:51:53;;;;;;;1.17;0.38;;;18.90;70.50;;;;;;5029659;28;20034;-83
2021/06/27 03:54:19;;;;;;;1.35;0.40;;;18.90;70.50;;;;;;5014616;28;20026;-84
2021/06/27 03:56:45;;;;;;;0.85;0.10;;;18.90;70.50;;;;;;5029526;28;20026;-85
2021/06/27 03:59:11;;;;;;;0.45;0.10;;;19.00;70.60;;;;;;5029431;28;20032;-87
2021/06/27 04:01:37;;;;;;;0.98;0.38;;;19.00;70.60;;;;;;5029123;28;20034;-85
2021/06/27 04:04:03;;;;;;;0.90;0.30;;;18.90;70.50;;;;;;4998452;28;20037;-87
2021/06/27 04:06:29;;;;;;;0.15;0.00;;;19.00;70.60;;;;;;5013440;28;20030;-84
2021/06/27 04:08:56;;;;;;;0.85;0.35;;;18.90;70.60;;;;;;5013649;28;20396;-85
2021/06/27 04:11:22;;;;;;;1.25;0.30;;;18.90;70.60;;;;;;5013824;28;20034;-85
2021/06/27 04:13:48;;;;;;;0.28;0.13;;;18.90;70.70;;;;;;5029244;28;20022;-85
2021/06/27 04:16:14;;;;;;;2.80;0.75;;;18.90;70.70;;;;;;5028743;28;20041;-85
2021/06/27 04:18:40;;;;;;;1.17;0.28;;;18.90;70.70;;;;;;5014023;28;20365;-84
2021/06/27 04:21:06;;;;;;;0.85;0.30;;;18.90;70.70;;;;;;5014032;28;20591;-78
2021/06/27 04:23:34;;;;;;;2.05;0.47;;;18.90;70.80;;;;;;5028818;28;20044;-86
2021/06/27 04:26:00;;;;;;;2.80;0.35;;;18.90;70.80;;;;;;5013726;28;20392;-85
2021/06/27 04:28:26;;;;;;;0.60;0.25;;;18.90;70.80;;;;;;5013752;28;20034;-84
2021/06/27 04:30:52;;;;;;;0.40;0.28;;;18.90;70.90;;;;;;5028248;28;20103;-85
2021/06/27 04:33:18;;;;;;;3.75;0.55;;;18.90;70.90;;;;;;5014066;28;20037;-85
2021/06/27 04:35:44;;;;;;;0.65;0.20;;;18.80;71.00;;;;;;5013213;28;20043;-84
2021/06/27 04:38:13;;;;;;;0.70;0.35;;;18.80;71.10;;;;;;5028580;28;20028;-86
2021/06/27 04:40:39;;;;;;;0.77;0.20;;;18.80;71.20;;;;;;5028533;28;20022;-85
2021/06/27 04:43:05;;;;;;;0.90;0.30;;;18.80;71.20;;;;;;5028753;28;20033;-85
2021/06/27 04:45:32;;;;;;;0.50;0.17;;;18.80;71.30;;;;;;5009438;28;20030;-85
2021/06/27 04:48:01;;;;;;;0.57;0.25;;;18.80;71.30;;;;;;5028557;28;20033;-85
2021/06/27 04:50:28;;;;;;;1.08;0.40;;;18.80;71.30;;;;;;5012956;28;20506;-84
2021/06/27 04:52:54;;;;;;;0.30;0.10;;;18.80;71.30;;;;;;5013134;28;20033;-86
2021/06/27 04:55:20;;;;;;;0.35;0.10;;;18.80;71.30;;;;;;5013263;28;20030;-85
2021/06/27 04:57:46;;;;;;;0.50;0.20;;;18.80;71.30;;;;;;5028657;28;20030;-84
2021/06/27 05:00:13;;;;;;;0.70;0.20;;;18.70;71.30;;;;;;5012924;28;20416;-86
2021/06/27 05:02:39;;;;;;;1.00;0.47;;;18.70;71.40;;;;;;5026802;28;20042;-85
2021/06/27 05:05:06;;;;;;;0.77;0.40;;;18.70;71.50;;;;;;5008263;28;20057;-85
2021/06/27 05:07:32;;;;;;;0.80;0.20;;;18.60;71.50;;;;;;5001226;28;20026;-85
2021/06/27 05:09:59;;;;;;;14.07;0.65;;;18.60;71.60;;;;;;5012919;28;20048;-85
2021/06/27 05:12:25;;;;;;;0.20;0.10;;;18.60;71.60;;;;;;5012226;28;20041;-84
2021/06/27 05:14:51;;;;;;;0.30;0.10;;;18.60;71.70;;;;;;5028096;28;20029;-85
2021/06/27 05:17:17;;;;;;;0.43;0.13;;;18.60;71.80;;;;;;5012474;28;20044;-85
2021/06/27 05:19:43;;;;;;;1.13;0.32;;;18.60;71.80;;;;;;5027588;28;20029;-85
2021/06/27 05:22:10;;;;;;;0.22;0.00;;;18.60;71.80;;;;;;5012839;28;20765;-85
2021/06/27 05:24:36;;;;;;;0.35;0.10;;;18.60;71.80;;;;;;5013071;28;20042;-80
2021/06/27 05:27:02;;;;;;;0.40;0.20;;;18.60;71.70;;;;;;5013148;28;20041;-82
2021/06/27 05:29:28;;;;;;;2.65;0.38;;;18.70;71.70;;;;;;5010831;28;20060;-85
2021/06/27 05:31:54;;;;;;;0.82;0.20;;;18.70;71.70;;;;;;5011989;28;20042;-85
2021/06/27 05:34:20;;;;;;;1.98;0.35;;;18.70;71.70;;;;;;5012441;28;20037;-85
2021/06/27 05:36:46;;;;;;;1.17;0.30;;;18.70;71.80;;;;;;5012613;28;20029;-85
2021/06/27 05:39:13;;;;;;;0.85;0.30;;;18.60;71.80;;;;;;5011748;28;20038;-85
2021/06/27 05:41:39;;;;;;;1.23;0.40;;;18.60;71.80;;;;;;5012491;28;20041;-85
2021/06/27 05:44:06;;;;;;;0.10;0.00;;;18.70;72.00;;;;;;5012159;28;20042;-85
2021/06/27 05:46:32;;;;;;;1.67;0.60;;;18.60;72.00;;;;;;5011913;28;20030;-87
2021/06/27 05:48:58;;;;;;;0.20;0.08;;;18.50;72.10;;;;;;5011956;28;20038;-85
2021/06/27 05:51:25;;;;;;;0.25;0.17;;;18.50;72.20;;;;;;5011679;28;20037;-85
2021/06/27 05:53:52;;;;;;;1.13;0.43;;;18.50;72.40;;;;;;5027376;28;20034;-85
2021/06/27 05:56:19;;;;;;;0.63;0.30;;;18.40;72.50;;;;;;5027551;28;20392;-86
2021/06/27 05:58:46;;;;;;;0.30;0.10;;;18.40;72.50;;;;;;5012423;28;20046;-86
2021/06/27 06:01:14;;;;;;;0.55;0.17;;;18.40;72.50;;;;;;5011608;28;20034;-84
2021/06/27 06:03:40;;;;;;;0.47;0.17;;;18.40;72.60;;;;;;5027188;28;20366;-85
2021/06/27 06:06:06;;;;;;;3.85;0.75;;;18.40;72.60;;;;;;5011239;28;20041;-84
2021/06/27 06:08:33;;;;;;;0.35;0.15;;;18.40;72.50;;;;;;5027043;28;20033;-85
2021/06/27 06:10:59;;;;;;;0.40;0.10;;;18.50;72.50;;;;;;5011931;28;20049;-84
2021/06/27 06:13:25;;;;;;;1.08;0.30;;;18.50;72.40;;;;;;5027215;28;20037;-85
2021/06/27 06:15:51;;;;;;;1.50;0.40;;;18.60;72.50;;;;;;5015122;28;20033;-82
2021/06/27 06:18:17;;;;;;;1.00;0.30;;;18.60;72.50;;;;;;5016299;28;20479;-85
2021/06/27 06:20:43;;;;;;;0.98;0.20;;;18.60;72.30;;;;;;5031350;28;20038;-84
2021/06/27 06:23:09;;;;;;;0.43;0.22;;;18.60;72.30;;;;;;5015955;28;20400;-85
2021/06/27 06:25:35;;;;;;;1.58;0.52;;;18.60;72.30;;;;;;5014787;28;20064;-82
2021/06/27 06:28:02;;;;;;;1.85;0.43;;;18.60;72.30;;;;;;5031159;28;20453;-86
2021/06/27 06:30:28;;;;;;;0.30;0.10;;;18.60;72.30;;;;;;5015805;28;20053;-84
2021/06/27 06:32:54;;;;;;;0.75;0.35;;;18.60;72.40;;;;;;5014160;28;20047;-85
2021/06/27 06:35:20;;;;;;;1.00;0.43;;;18.60;72.40;;;;;;5016021;28;20036;-84
2021/06/27 06:37:46;;;;;;;3.70;0.38;;;18.60;72.40;;;;;;5031689;28;20400;-85
2021/06/27 06:40:12;;;;;;;1.48;0.30;;;18.70;72.40;;;;;;5031687;28;20041;-84
2021/06/27 06:42:38;;;;;;;0.30;0.10;;;18.70;72.40;;;;;;5016356;28;20042;-84
2021/06/27 06:45:06;;;;;;;0.20;0.10;;;18.70;72.40;;;;;;5014653;28;20412;-85
2021/06/27 06:47:33;;;;;;;0.75;0.20;;;18.70;72.30;;;;;;5030657;28;20464;-86
2021/06/27 06:49:59;;;;;;;4.03;0.52;;;18.80;72.40;;;;;;5030968;28;20052;-85
2021/06/27 06:52:25;;;;;;;1.85;0.63;;;18.70;72.40;;;;;;5015551;28;20041;-85
2021/06/27 06:54:51;;;;;;;2.35;0.32;;;18.70;72.40;;;;;;5015467;28;20037;-85
2021/06/27 06:57:17;;;;;;;0.68;0.25;;;18.80;72.40;;;;;;5015840;28;20030;-84
2021/06/27 06:59:43;;;;;;;0.45;0.00;;;18.80;72.40;;;;;;5015294;28;20026;-84
2021/06/27 07:02:09;;;;;;;5.53;0.43;;;18.80;72.40;;;;;;5010017;28;20498;-86
2021/06/27 07:04:35;;;;;;;0.60;0.10;;;18.80;72.40;;;;;;5003691;28;20411;-85
2021/06/27 07:07:01;;;;;;;1.08;0.35;;;18.80;72.40;;;;;;5015196;28;20037;-86
2021/06/27 07:09:27;;;;;;;1.98;0.35;;;18.80;72.40;;;;;;5015566;28;20037;-84
2021/06/27 07:11:53;;;;;;;1.85;0.43;;;18.90;72.50;;;;;;5015028;28;20026;-85
2021/06/27 07:14:19;;;;;;;1.50;0.50;;;18.90;72.40;;;;;;5014921;28;20034;-85
2021/06/27 07:16:45;;;;;;;1.55;0.30;;;19.00;72.50;;;;;;5014133;28;20048;-84
2021/06/27 07:19:12;;;;;;;7.25;0.68;;;19.00;72.50;;;;;;5014922;28;20030;-85
2021/06/27 07:21:40;;;;;;;0.00;0.00;;;19.00;72.40;;;;;;5015362;28;20032;-85
2021/06/27 07:24:06;;;;;;;1.27;0.30;;;19.00;72.40;;;;;;5015292;28;20504;-86
2021/06/27 07:26:32;;;;;;;2.20;0.55;;;19.10;72.30;;;;;;5029553;28;20033;-87
2021/06/27 07:28:58;;;;;;;1.75;0.28;;;19.20;72.20;;;;;;5014572;28;20400;-85
2021/06/27 07:31:25;;;;;;;0.80;0.22;;;19.30;72.20;;;;;;5014230;28;20030;-86
2021/06/27 07:33:51;;;;;;;1.67;0.20;;;19.50;72.20;;;;;;5013900;28;20400;-85
2021/06/27 07:36:17;;;;;;;2.65;0.40;;;19.60;71.90;;;;;;5015402;28;20041;-85
2021/06/27 07:38:43;;;;;;;0.90;0.50;;;19.70;71.70;;;;;;5010137;28;20406;-85
2021/06/27 07:41:09;;;;;;;0.95;0.20;;;19.80;71.60;;;;;;5007523;28;20026;-86
2021/06/27 07:43:35;;;;;;;1.20;0.40;;;19.90;71.50;;;;;;5029938;28;20022;-86
2021/06/27 07:46:01;;;;;;;1.42;0.20;;;20.00;71.40;;;;;;4997590;28;20044;-86
2021/06/27 07:48:27;;;;;;;1.67;0.57;;;20.10;71.50;;;;;;5013769;28;20022;-84
2021/06/27 07:50:53;;;;;;;1.05;0.30;;;20.10;71.30;;;;;;5029644;28;20396;-86
2021/06/27 07:53:20;;;;;;;2.17;0.45;;;20.20;71.30;;;;;;5014336;28;20030;-83
2021/06/27 07:55:47;;;;;;;0.57;0.47;;;20.30;71.30;;;;;;5014370;28;20037;-86
2021/06/27 07:58:13;;;;;;;3.97;0.73;;;20.30;71.30;;;;;;5029427;28;20026;-87
2021/06/27 08:00:39;;;;;;;2.28;0.38;;;20.30;71.30;;;;;;5013679;28;20030;-87
2021/06/27 08:03:06;;;;;;;0.50;0.20;;;20.30;71.40;;;;;;5014499;28;20053;-86
2021/06/27 08:05:32;;;;;;;0.22;0.10;;;20.20;71.50;;;;;;5014239;28;20045;-84
2021/06/27 08:07:58;;;;;;;0.30;0.10;;;20.20;71.60;;;;;;5014079;28;20029;-90
2021/06/27 08:10:24;;;;;;;0.60;0.25;;;20.20;71.70;;;;;;5029348;28;20476;-86
2021/06/27 08:12:50;;;;;;;0.70;0.30;;;20.20;71.80;;;;;;5014052;28;20484;-87
2021/06/27 08:15:19;;;;;;;0.75;0.25;;;20.10;71.80;;;;;;5011737;28;20042;-85
2021/06/27 08:17:49;;;;;;;1.65;0.25;;;20.10;71.90;;;;;;5028794;28;20041;-86
2021/06/27 08:20:16;;;;;;;0.85;0.30;;;20.10;72.00;;;;;;5013695;28;20029;-85
2021/06/27 08:22:42;;;;;;;0.70;0.22;;;20.10;72.10;;;;;;5013834;28;20026;-86
2021/06/27 08:25:08;;;;;;;0.43;0.10;;;20.10;72.10;;;;;;5028939;28;20049;-86
2021/06/27 08:27:35;;;;;;;3.50;0.30;;;20.00;72.10;;;;;;5029643;28;20037;-87
2021/06/27 08:30:04;;;;;;;1.00;0.35;;;20.00;72.20;;;;;;5013168;28;20052;-86
2021/06/27 08:32:31;;;;;;;0.15;0.10;;;20.10;72.30;;;;;;5027886;28;20037;-86
2021/06/27 08:34:57;;;;;;;0.45;0.10;;;20.00;72.40;;;;;;5013441;28;20037;-87
2021/06/27 08:37:23;;;;;;;1.20;0.47;;;20.00;72.40;;;;;;5012851;28;20500;-87
2021/06/27 08:39:50;;;;;;;1.65;0.60;;;20.00;72.50;;;;;;5013578;28;20037;-86
2021/06/27 08:42:19;;;;;;;2.30;0.85;;;19.90;72.50;;;;;;5012423;28;20030;-87
2021/06/27 08:44:46;;;;;;;1.23;0.32;;;20.00;72.60;;;;;;5028177;28;20054;-86
2021/06/27 08:47:15;;;;;;;1.27;0.50;;;20.00;72.60;;;;;;5028117;28;20045;-87
2021/06/27 08:49:44;;;;;;;1.50;0.60;;;19.90;72.50;;;;;;5028308;28;20033;-86
2021/06/27 08:52:15;;;;;;;0.70;0.35;;;19.90;72.60;;;;;;5028352;28;20030;-86
2021/06/27 08:54:41;;;;;;;0.90;0.17;;;19.90;72.70;;;;;;5028179;28;20030;-86
2021/06/27 08:57:07;;;;;;;1.13;0.20;;;19.80;72.80;;;;;;5011917;28;20439;-86
2021/06/27 08:59:33;;;;;;;0.30;0.08;;;19.80;72.80;;;;;;5028161;28;20044;-87
2021/06/27 09:02:02;;;;;;;1.00;0.40;;;19.80;72.90;;;;;;5012416;28;20049;-85
2021/06/27 09:04:31;;;;;;;0.00;0.00;;;19.80;73.00;;;;;;5027814;28;20030;-87
2021/06/27 09:07:33;;;;;;;1.25;0.10;;;19.80;73.00;;;;;;5027805;28;20052;-86
2021/06/27 09:10:17;;;;;;;3.50;0.43;;;19.80;73.00;;;;;;5012318;28;20021;-87
2021/06/27 09:13:13;;;;;;;0.90;0.20;;;19.80;73.00;;;;;;5009936;28;20034;-86
2021/06/27 09:15:49;;;;;;;0.30;0.13;;;19.80;73.10;;;;;;5019910;28;20029;-87
2021/06/27 09:18:15;;;;;;;0.90;0.30;;;19.80;73.00;;;;;;5009964;28;20038;-88
2021/06/27 09:20:43;;;;;;;0.68;0.10;;;19.80;72.90;;;;;;5012838;28;20045;-87
2021/06/27 09:23:10;;;;;;;0.20;0.10;;;19.90;72.90;;;;;;5027965;28;20033;-84
2021/06/27 09:25:36;;;;;;;0.63;0.15;;;19.80;72.80;;;;;;5012584;28;20045;-86
2021/06/27 09:28:13;;;;;;;0.40;0.10;;;19.90;72.90;;;;;;5027551;28;20041;-85
2021/06/27 09:30:53;;;;;;;0.30;0.20;;;19.80;73.00;;;;;;5024072;28;20508;-86
2021/06/27 09:33:22;;;;;;;1.42;0.25;;;19.80;73.20;;;;;;5011420;28;20037;-86
2021/06/27 09:35:56;;;;;;;0.10;0.03;;;19.80;73.20;;;;;;5027365;28;20053;-86
2021/06/27 09:38:46;;;;;;;0.10;0.10;;;19.80;73.30;;;;;;5012306;28;20050;-86
2021/06/27 09:41:22;;;;;;;0.20;0.10;;;19.80;73.30;;;;;;5012043;28;20038;-86
2021/06/27 09:43:52;;;;;;;0.63;0.20;;;19.80;73.10;;;;;;5012395;28;20029;-86
2021/06/27 09:46:38;;;;;;;0.10;0.00;;;19.90;73.10;;;;;;5011910;28;20056;-86
2021/06/27 09:49:09;;;;;;;0.13;0.00;;;19.90;73.10;;;;;;5011819;28;20026;-86
2021/06/27 09:51:37;;;;;;;0.10;0.00;;;20.00;73.10;;;;;;5007899;28;20384;-87
2021/06/27 09:54:14;;;;;;;2.78;0.20;;;20.00;73.10;;;;;;5011208;28;20045;-87
2021/06/27 09:56:40;;;;;;;0.20;0.05;;;20.00;73.10;;;;;;5006808;28;20043;-87
2021/06/27 09:59:08;;;;;;;0.75;0.08;;;20.00;73.10;;;;;;5003774;28;20049;-86
2021/06/27 10:01:35;;;;;;;0.40;0.10;;;20.00;73.10;;;;;;5026874;28;20030;-87
2021/06/27 10:04:02;;;;;;;0.30;0.10;;;20.10;73.00;;;;;;5011115;28;20038;-87
2021/06/27 10:06:32;;;;;;;0.47;0.10;;;20.20;72.90;;;;;;5011625;28;20034;-84
2021/06/27 10:09:12;;;;;;;1.00;0.00;;;20.30;72.70;;;;;;5012003;28;20037;-86
2021/06/27 10:11:39;;;;;;;0.65;0.03;;;20.40;72.60;;;;;;5026758;28;20066;-86
2021/06/27 10:14:08;;;;;;;0.77;0.10;;;20.50;72.40;;;;;;5027200;28;20022;-87
2021/06/27 10:16:34;;;;;;;0.52;0.10;;;20.60;72.20;;;;;;5026528;28;20057;-87
2021/06/27 10:19:00;;;;;;;1.05;0.08;;;20.60;72.10;;;;;;5027314;28;20033;-86
2021/06/27 10:21:27;;;;;;;0.43;0.05;;;20.70;72.00;;;;;;5008378;28;20038;-87
2021/06/27 10:23:54;;;;;;;1.45;0.20;;;20.70;72.00;;;;;;5010533;28;20034;-87
2021/06/27 10:26:21;;;;;;;0.30;0.00;;;20.70;72.10;;;;;;5026615;28;20068;-87
2021/06/27 10:28:48;;;;;;;0.30;0.10;;;20.60;72.20;;;;;;5011792;28;20480;-87
2021/06/27 10:31:15;;;;;;;0.00;0.00;;;20.60;72.30;;;;;;5026830;28;20030;-87
2021/06/27 10:33:41;;;;;;;1.08;0.05;;;20.60;72.40;;;;;;5027362;28;20029;-87
2021/06/27 10:36:09;;;;;;;0.30;0.10;;;20.60;72.40;;;;;;5012203;28;20480;-89
2021/06/27 10:38:35;;;;;;;0.75;0.10;;;20.50;72.50;;;;;;5011296;28;20038;-87
2021/06/27 10:41:01;;;;;;;15.20;0.55;;;20.50;72.60;;;;;;5027076;28;20034;-86
2021/06/27 10:43:56;;;;;;;0.20;0.10;;;20.40;72.60;;;;;;5011927;28;20049;-86
2021/06/27 10:46:42;;;;;;;0.17;0.00;;;20.40;72.70;;;;;;4998332;28;20400;-86
2021/06/27 10:49:34;;;;;;;0.20;0.05;;;20.40;72.80;;;;;;5010737;28;20388;-86
2021/06/27 10:52:07;;;;;;;0.52;0.15;;;20.30;72.80;;;;;;5010378;28;20045;-86
2021/06/27 10:54:37;;;;;;;1.95;0.17;;;20.30;72.80;;;;;;5006700;28;20484;-87
2021/06/27 10:57:04;;;;;;;0.20;0.00;;;20.30;72.90;;;;;;5027162;28;20034;-87
2021/06/27 10:59:49;;;;;;;4.10;0.13;;;20.30;72.90;;;;;;5010670;28;20049;-85
2021/06/27 11:02:38;;;;;;;0.60;0.28;;;20.40;73.00;;;;;;5013661;28;20034;-85
2021/06/27 11:05:35;;;;;;;0.65;0.20;;;20.40;72.90;;;;;;5027507;28;20484;-86
2021/06/27 11:08:04;;;;;;;1.45;0.38;;;20.30;73.00;;;;;;5016108;28;20520;-86
2021/06/27 11:10:34;;;;;;;0.70;0.10;;;20.30;73.00;;;;;;5030144;28;20026;-86
2021/06/27 11:13:01;;;;;;;0.33;0.07;;;20.30;73.10;;;;;;5013746;28;20030;-86
2021/06/27 11:15:47;;;;;;;0.35;0.20;;;20.30;73.20;;;;;;5015225;28;20026;-86
2021/06/27 11:18:13;;;;;;;0.10;0.10;;;20.30;73.30;;;;;;5013238;28;20041;-86
2021/06/27 11:20:48;;;;;;;0.52;0.20;;;20.20;73.30;;;;;;5029887;28;20041;-86
2021/06/27 11:23:14;;;;;;;1.95;0.08;;;20.20;73.40;;;;;;5014583;28;20029;-86
2021/06/27 11:25:42;;;;;;;0.20;0.00;;;20.20;73.40;;;;;;5029973;28;20049;-86
2021/06/27 11:28:20;;;;;;;0.10;0.00;;;20.10;73.50;;;;;;5014789;28;20025;-87
2021/06/27 11:31:12;;;;;;;0.20;0.10;;;20.10;73.70;;;;;;5012944;28;20435;-86
2021/06/27 11:33:38;;;;;;;0.55;0.10;;;20.10;73.70;;;;;;5010599;28;20043;-85
2021/06/27 11:36:05;;;;;;;0.30;0.10;;;20.00;73.70;;;;;;5014392;28;20041;-87
2021/06/27 11:38:42;;;;;;;0.85;0.10;;;20.00;73.80;;;;;;5029367;28;20392;-86
2021/06/27 11:41:17;;;;;;;0.35;0.20;;;20.00;73.90;;;;;;5014702;28;20042;-85
2021/06/27 11:43:59;;;;;;;0.40;0.10;;;20.00;74.00;;;;;;5014512;28;20029;-86
2021/06/27 11:46:38;;;;;;;2.08;0.20;;;20.00;74.10;;;;;;5014039;28;20408;-85
2021/06/27 11:49:05;;;;;;;0.28;0.00;;;20.00;74.10;;;;;;5014566;28;20013;-84
2021/06/27 11:51:47;;;;;;;0.70;0.30;;;20.00;74.10;;;;;;5014719;28;20049;-85
2021/06/27 11:54:20;;;;;;;0.57;0.28;;;20.00;74.20;;;;;;5013130;28;20034;-86
2021/06/27 11:57:05;;;;;;;1.65;0.20;;;20.00;74.10;;;;;;5014428;28;20508;-86
2021/06/27 11:59:38;;;;;;;0.75;0.13;;;20.00;74.10;;;;;;5014131;28;20042;-85
2021/06/27 12:02:13;;;;;;;0.32;0.13;;;20.00;74.10;;;;;;5008897;28;20121;-87
2021/06/27 12:04:43;;;;;;;0.40;0.10;;;20.00;74.10;;;;;;5001684;28;20038;-85
2021/06/27 12:07:29;;;;;;;0.52;0.15;;;20.10;74.10;;;;;;4998606;28;20041;-86
2021/06/27 12:09:55;;;;;;;0.20;0.05;;;20.10;74.10;;;;;;5028799;28;20026;-86
2021/06/27 12:12:36;;;;;;;0.77;0.10;;;20.30;73.90;;;;;;5009039;28;20043;-85
2021/06/27 12:15:08;;;;;;;0.10;0.00;;;20.40;73.80;;;;;;5013707;28;20030;-83
2021/06/27 12:17:34;;;;;;;0.15;0.00;;;20.60;73.50;;;;;;5028683;28;20507;-85
2021/06/27 12:20:00;;;;;;;0.20;0.00;;;20.80;73.30;;;;;;5028747;28;20030;-86
2021/06/27 12:22:26;;;;;;;0.38;0.10;;;20.90;73.10;;;;;;5029181;28;20038;-86
2021/06/27 12:25:05;;;;;;;0.05;0.00;;;21.10;72.90;;;;;;5028968;28;20029;-85
2021/06/27 12:27:31;;;;;;;0.22;0.00;;;21.20;72.70;;;;;;4996324;28;20053;-86
2021/06/27 12:29:57;;;;;;;0.03;0.00;;;21.30;72.50;;;;;;5012384;28;20045;-87
2021/06/27 12:32:23;;;;;;;0.15;0.00;;;21.40;72.50;;;;;;5028602;28;20041;-86
2021/06/27 12:34:49;;;;;;;0.20;0.00;;;21.40;72.60;;;;;;5013478;28;20033;-87
2021/06/27 12:37:15;;;;;;;0.40;0.13;;;21.40;72.60;;;;;;5028924;28;20030;-86
2021/06/27 12:39:41;;;;;;;0.17;0.00;;;21.30;72.60;;;;;;5028936;28;20026;-88
2021/06/27 12:42:12;;;;;;;0.10;0.00;;;21.30;72.80;;;;;;4996626;28;20045;-86
2021/06/27 12:44:38;;;;;;;0.00;0.00;;;21.30;72.90;;;;;;5028765;28;20026;-87
2021/06/27 12:47:04;;;;;;;0.05;0.00;;;21.30;73.00;;;;;;5028255;28;20034;-86
2021/06/27 12:49:33;;;;;;;0.10;0.00;;;21.30;72.90;;;;;;5011618;28;20400;-86
2021/06/27 12:52:06;;;;;;;0.50;0.00;;;21.40;73.00;;;;;;5028241;28;20380;-87
2021/06/27 12:54:45;;;;;;;0.10;0.00;;;21.40;72.80;;;;;;5010193;28;20045;-85